createdAt,value
2017-09-27T00:00:07.699Z,102742.73
2017-09-27T00:02:36.150Z,102743.18
2017-09-27T00:05:04.582Z,102746.20
2017-09-27T00:07:33.041Z,102750.08
2017-09-27T00:10:01.530Z,102755.28
2017-09-27T00:12:29.969Z,102759.64
2017-09-27T00:14:58.496Z,102750.56
2017-09-27T00:17:26.978Z,102751.42
2017-09-27T00:19:55.412Z,102754.48
2017-09-27T00:22:23.948Z,102744.92
2017-09-27T00:24:52.379Z,102752.30
2017-09-27T00:27:20.811Z,102745.81
2017-09-27T00:29:49.287Z,102743.23
2017-09-27T00:32:17.725Z,102741.50
2017-09-27T00:34:46.251Z,102739.76
2017-09-27T00:37:14.678Z,102734.13
2017-09-27T00:39:43.220Z,102734.56
2017-09-27T00:42:11.657Z,102729.39
2017-09-27T00:44:40.179Z,102730.67
2017-09-27T00:47:08.607Z,102731.08
2017-09-27T00:49:37.149Z,102739.77
2017-09-27T00:52:05.636Z,102727.67
2017-09-27T00:54:34.089Z,102732.00
2017-09-27T00:57:03.316Z,102731.59
2017-09-27T00:59:31.751Z,102737.20
2017-09-27T01:02:00.207Z,102742.84
2017-09-27T01:04:28.651Z,102745.00
2017-09-27T01:06:57.108Z,102748.02
2017-09-27T01:09:26.336Z,102745.89
2017-09-27T01:11:54.825Z,102735.94
2017-09-27T01:14:23.263Z,102742.43
2017-09-27T01:16:52.595Z,102745.89
2017-09-27T01:19:21.023Z,102743.70
2017-09-27T01:21:49.474Z,102738.97
2017-09-27T01:24:17.912Z,102739.83
2017-09-27T01:26:47.135Z,102748.09
2017-09-27T01:29:15.627Z,102739.00
2017-09-27T01:31:44.114Z,102739.00
2017-09-27T01:34:12.596Z,102738.16
2017-09-27T01:36:41.027Z,102749.83
2017-09-27T01:39:09.484Z,102737.30
2017-09-27T01:41:37.924Z,102739.91
2017-09-27T01:44:06.411Z,102740.78
2017-09-27T01:46:34.886Z,102739.95
2017-09-27T01:49:03.327Z,102733.48
2017-09-27T01:51:31.755Z,102736.95
2017-09-27T01:54:00.239Z,102726.53
2017-09-27T01:56:28.701Z,102731.73
2017-09-27T01:58:58.025Z,102729.61
2017-09-27T02:01:26.456Z,102731.78
2017-09-27T02:03:54.984Z,102730.48
2017-09-27T02:06:23.467Z,102732.66
2017-09-27T02:08:51.899Z,102738.27
2017-09-27T02:11:20.361Z,102733.94
2017-09-27T02:13:48.807Z,102727.45
2017-09-27T02:16:17.291Z,102726.62
2017-09-27T02:18:45.719Z,102733.09
2017-09-27T02:21:14.180Z,102729.62
2017-09-27T02:23:42.635Z,102740.87
2017-09-27T02:26:11.091Z,102747.77
2017-09-27T02:28:40.315Z,102736.48
2017-09-27T02:31:08.772Z,102730.90
2017-09-27T02:33:37.998Z,102728.30
2017-09-27T02:36:06.432Z,102724.01
2017-09-27T02:38:34.895Z,102727.90
2017-09-27T02:41:03.344Z,102722.68
2017-09-27T02:43:31.839Z,102727.87
2017-09-27T02:46:01.137Z,102728.29
2017-09-27T02:48:29.607Z,102725.69
2017-09-27T02:50:58.087Z,102728.29
2017-09-27T02:53:26.575Z,102733.03
2017-09-27T02:55:55.009Z,102724.81
2017-09-27T02:58:23.539Z,102719.61
2017-09-27T03:00:51.977Z,102728.67
2017-09-27T03:03:20.432Z,102735.15
2017-09-27T03:05:48.862Z,102730.37
2017-09-27T03:08:18.182Z,102726.03
2017-09-27T03:10:46.671Z,102726.91
2017-09-27T03:13:15.365Z,102738.15
2017-09-27T03:15:43.834Z,102737.72
2017-09-27T03:18:12.315Z,102735.11
2017-09-27T03:20:40.767Z,102735.55
2017-09-27T03:23:09.967Z,102732.92
2017-09-27T03:25:39.321Z,102735.94
2017-09-27T03:28:07.749Z,102738.53
2017-09-27T03:30:36.973Z,102742.00
2017-09-27T03:33:05.459Z,102741.58
2017-09-27T03:35:33.916Z,102734.62
2017-09-27T03:38:03.112Z,102734.59
2017-09-27T03:40:32.332Z,102731.59
2017-09-27T03:43:00.829Z,102733.71
2017-09-27T03:45:29.408Z,102728.12
2017-09-27T03:47:57.887Z,102724.27
2017-09-27T03:50:26.316Z,102722.09
2017-09-27T03:52:54.847Z,102716.05
2017-09-27T03:55:23.276Z,102716.02
2017-09-27T03:57:51.738Z,102710.84
2017-09-27T04:00:20.196Z,102715.60
2017-09-27T04:02:48.692Z,102714.31
2017-09-27T04:05:17.127Z,102713.42
2017-09-27T04:07:46.455Z,102714.73
2017-09-27T04:10:14.884Z,102716.91
2017-09-27T04:12:43.336Z,102716.93
2017-09-27T04:15:11.771Z,102724.69
2017-09-27T04:17:41.347Z,102726.39
2017-09-27T04:20:09.775Z,102739.36
2017-09-27T04:22:38.980Z,102743.68
2017-09-27T04:25:07.431Z,102741.11
2017-09-27T04:27:35.866Z,102741.53
2017-09-27T04:30:04.343Z,102743.25
2017-09-27T04:32:32.832Z,102749.29
2017-09-27T04:35:01.332Z,102757.12
2017-09-27T04:37:29.767Z,102752.34
2017-09-27T04:39:58.258Z,102743.69
2017-09-27T04:42:26.747Z,102747.59
2017-09-27T04:44:55.225Z,102748.04
2017-09-27T04:47:23.668Z,102747.17
2017-09-27T04:49:53.116Z,102744.13
2017-09-27T04:52:21.556Z,102751.52
2017-09-27T04:54:50.776Z,102745.45
2017-09-27T04:57:20.091Z,102744.58
2017-09-27T04:59:48.522Z,102751.08
2017-09-27T05:02:16.980Z,102754.54
2017-09-27T05:04:45.440Z,102744.56
2017-09-27T05:07:13.928Z,102744.55
2017-09-27T05:09:42.367Z,102749.77
2017-09-27T05:12:11.610Z,102748.48
2017-09-27T05:14:40.044Z,102742.02
2017-09-27T05:17:08.479Z,102745.00
2017-09-27T05:19:36.932Z,102747.19
2017-09-27T05:22:05.358Z,102742.83
2017-09-27T05:24:33.827Z,102735.94
2017-09-27T05:27:02.264Z,102735.90
2017-09-27T05:29:31.492Z,102730.69
2017-09-27T05:31:59.969Z,102731.55
2017-09-27T05:34:28.424Z,102730.73
2017-09-27T05:36:57.623Z,102732.89
2017-09-27T05:39:26.864Z,102729.39
2017-09-27T05:41:55.328Z,102729.81
2017-09-27T05:44:23.817Z,102735.88
2017-09-27T05:46:52.309Z,102738.47
2017-09-27T05:49:20.791Z,102727.66
2017-09-27T05:51:49.244Z,102734.17
2017-09-27T05:54:19.075Z,102735.45
2017-09-27T05:56:47.535Z,102744.11
2017-09-27T05:59:16.730Z,102743.20
2017-09-27T06:01:46.056Z,102749.22
2017-09-27T06:04:14.653Z,102746.20
2017-09-27T06:06:43.134Z,102750.56
2017-09-27T06:09:11.576Z,102751.77
2017-09-27T06:11:40.775Z,102755.69
2017-09-27T06:14:09.991Z,102760.86
2017-09-27T06:16:38.489Z,102758.24
2017-09-27T06:19:06.979Z,102764.23
2017-09-27T06:21:35.452Z,102758.63
2017-09-27T06:24:03.924Z,102760.72
2017-09-27T06:26:32.367Z,102762.89
2017-09-27T06:31:58.230Z,102762.44
2017-09-27T06:34:27.463Z,102768.91
2017-09-27T06:36:55.913Z,102777.08
2017-09-27T06:39:25.150Z,102779.25
2017-09-27T06:41:53.598Z,102777.90
2017-09-27T06:44:22.089Z,102782.61
2017-09-27T06:46:50.593Z,102783.48
2017-09-27T06:49:19.041Z,102780.29
2017-09-27T06:51:48.281Z,102784.25
2017-09-27T06:54:16.737Z,102786.84
2017-09-27T06:56:45.211Z,102791.45
2017-09-27T06:59:13.662Z,102788.06
2017-09-27T07:01:42.202Z,102786.19
2017-09-27T07:04:10.686Z,102787.39
2017-09-27T07:06:39.882Z,102790.87
2017-09-27T07:09:08.330Z,102792.97
2017-09-27T07:11:37.567Z,102794.67
2017-09-27T07:14:06.042Z,102789.84
2017-09-27T07:16:34.531Z,102785.47
2017-09-27T07:19:03.422Z,102784.91
2017-09-27T07:21:31.902Z,102779.59
2017-09-27T07:24:00.481Z,102783.89
2017-09-27T07:26:28.946Z,102790.96
2017-09-27T07:28:57.417Z,102781.84
2017-09-27T07:31:26.626Z,102783.63
2017-09-27T07:33:55.135Z,102782.16
2017-09-27T07:36:23.586Z,102779.16
2017-09-27T07:38:52.638Z,102785.28
2017-09-27T07:41:21.086Z,102777.52
2017-09-27T07:43:49.574Z,102780.80
2017-09-27T07:46:18.021Z,102779.07
2017-09-27T07:48:46.518Z,102784.27
2017-09-27T07:51:14.962Z,102782.41
2017-09-27T07:53:43.418Z,102785.34
2017-09-27T07:56:11.982Z,102787.09
2017-09-27T07:58:40.424Z,102790.13
2017-09-27T08:01:09.662Z,102787.09
2017-09-27T08:03:38.144Z,102779.55
2017-09-27T08:06:06.720Z,102775.45
2017-09-27T08:08:35.166Z,102772.40
2017-09-27T08:11:05.021Z,102767.46
2017-09-27T08:13:33.477Z,102769.48
2017-09-27T08:16:01.994Z,102763.99
2017-09-27T08:18:30.445Z,102761.21
2017-09-27T08:20:58.889Z,102765.77
2017-09-27T08:23:28.868Z,102761.48
2017-09-27T08:25:57.318Z,102756.31
2017-09-27T08:28:26.553Z,102755.63
2017-09-27T08:30:55.033Z,102759.42
2017-09-27T08:33:23.617Z,102757.06
2017-09-27T08:35:52.285Z,102755.39
2017-09-27T08:38:20.785Z,102754.89
2017-09-27T08:40:49.228Z,102752.84
2017-09-27T08:43:18.462Z,102756.94
2017-09-27T08:45:46.901Z,102743.39
2017-09-27T08:48:16.245Z,102744.98
2017-09-27T08:50:44.730Z,102736.59
2017-09-27T08:53:13.177Z,102740.38
2017-09-27T08:55:42.513Z,102739.95
2017-09-27T08:58:10.999Z,102740.36
2017-09-27T09:00:39.581Z,102742.79
2017-09-27T09:03:08.027Z,102742.89
2017-09-27T09:05:37.363Z,102743.88
2017-09-27T09:08:05.846Z,102746.90
2017-09-27T09:10:34.314Z,102751.00
2017-09-27T09:13:02.761Z,102738.87
2017-09-27T09:15:32.106Z,102746.44
2017-09-27T09:18:00.553Z,102732.23
2017-09-27T09:20:29.813Z,102732.89
2017-09-27T09:22:58.250Z,102728.67
2017-09-27T09:25:26.751Z,102724.41
2017-09-27T09:27:55.230Z,102727.78
2017-09-27T09:30:23.672Z,102713.34
2017-09-27T09:32:53.022Z,102724.26
2017-09-27T09:35:21.498Z,102722.72
2017-09-27T09:37:49.984Z,102720.11
2017-09-27T09:40:18.429Z,102713.30
2017-09-27T09:42:47.768Z,102714.46
2017-09-27T09:45:16.213Z,102710.47
2017-09-27T09:47:45.469Z,102712.34
2017-09-27T09:50:13.914Z,102707.83
2017-09-27T09:52:42.359Z,102707.67
2017-09-27T09:55:10.825Z,102711.34
2017-09-27T09:57:40.778Z,102708.69
2017-09-27T10:00:10.007Z,102703.97
2017-09-27T10:02:38.491Z,102710.71
2017-09-27T10:05:07.076Z,102709.86
2017-09-27T10:07:35.560Z,102711.34
2017-09-27T10:10:04.142Z,102716.20
2017-09-27T10:12:32.594Z,102712.99
2017-09-27T10:15:01.925Z,102710.79
2017-09-27T10:17:30.408Z,102710.95
2017-09-27T10:19:58.900Z,102707.13
2017-09-27T10:22:27.470Z,102699.77
2017-09-27T10:24:55.922Z,102706.92
2017-09-27T10:27:25.254Z,102701.23
2017-09-27T10:29:53.739Z,102700.89
2017-09-27T10:32:22.209Z,102700.81
2017-09-27T10:34:50.659Z,102689.77
2017-09-27T10:37:20.006Z,102693.51
2017-09-27T10:39:48.450Z,102696.92
2017-09-27T10:42:17.793Z,102690.02
2017-09-27T10:44:46.306Z,102691.28
2017-09-27T10:47:14.776Z,102689.60
2017-09-27T10:49:43.331Z,102690.52
2017-09-27T10:52:11.784Z,102688.78
2017-09-27T10:54:41.012Z,102685.36
2017-09-27T10:57:09.458Z,102684.48
2017-09-27T10:59:38.689Z,102681.43
2017-09-27T11:02:07.181Z,102681.72
2017-09-27T11:04:35.657Z,102677.77
2017-09-27T11:07:04.144Z,102676.83
2017-09-27T11:09:32.728Z,102675.34
2017-09-27T11:12:01.182Z,102674.34
2017-09-27T11:14:29.662Z,102674.26
2017-09-27T11:16:58.176Z,102674.56
2017-09-27T11:19:26.658Z,102673.20
2017-09-27T11:21:55.105Z,102667.27
2017-09-27T11:24:24.533Z,102668.22
2017-09-27T11:26:53.010Z,102670.42
2017-09-27T11:29:21.458Z,102665.56
2017-09-27T11:31:50.699Z,102661.13
2017-09-27T11:34:19.198Z,102662.88
2017-09-27T11:36:47.663Z,102665.26
2017-09-27T11:39:16.151Z,102666.11
2017-09-27T11:41:44.613Z,102672.77
2017-09-27T11:44:13.059Z,102663.73
2017-09-27T11:46:43.128Z,102667.77
2017-09-27T11:49:11.609Z,102656.17
2017-09-27T11:51:40.077Z,102659.97
2017-09-27T11:54:08.529Z,102649.40
2017-09-27T11:56:37.785Z,102660.25
2017-09-27T11:59:06.360Z,102652.81
2017-09-27T12:01:34.811Z,102652.16
2017-09-27T12:04:04.046Z,102650.77
2017-09-27T12:06:32.525Z,102649.77
2017-09-27T12:09:00.998Z,102647.99
2017-09-27T12:11:29.453Z,102653.00
2017-09-27T12:13:58.693Z,102648.64
2017-09-27T12:16:27.171Z,102651.53
2017-09-27T12:18:55.754Z,102642.69
2017-09-27T12:21:24.237Z,102637.97
2017-09-27T12:23:52.698Z,102634.39
2017-09-27T12:26:21.204Z,102629.14
2017-09-27T12:28:49.779Z,102627.92
2017-09-27T12:31:18.229Z,102626.53
2017-09-27T12:33:47.466Z,102633.34
2017-09-27T12:36:15.938Z,102626.78
2017-09-27T12:38:44.397Z,102626.30
2017-09-27T12:41:13.630Z,102624.91
2017-09-27T12:43:42.588Z,102623.81
2017-09-27T12:46:11.924Z,102623.61
2017-09-27T12:48:41.226Z,102621.26
2017-09-27T12:51:09.694Z,102623.28
2017-09-27T12:53:38.181Z,102616.73
2017-09-27T12:56:06.649Z,102613.82
2017-09-27T12:58:35.099Z,102620.37
2017-09-27T13:01:03.631Z,102613.33
2017-09-27T13:03:32.103Z,102623.73
2017-09-27T13:06:00.570Z,102618.86
2017-09-27T13:08:29.009Z,102618.16
2017-09-27T13:10:57.558Z,102610.75
2017-09-27T13:13:26.005Z,102615.22
2017-09-27T13:15:55.244Z,102608.86
2017-09-27T13:18:23.825Z,102616.84
2017-09-27T13:20:52.278Z,102613.27
2017-09-27T13:23:21.544Z,102613.34
2017-09-27T13:25:49.991Z,102608.72
2017-09-27T13:28:18.453Z,102618.75
2017-09-27T13:30:46.957Z,102620.88
2017-09-27T13:33:15.535Z,102616.44
2017-09-27T13:35:43.977Z,102614.70
2017-09-27T13:38:13.317Z,102624.09
2017-09-27T13:40:41.761Z,102628.78
2017-09-27T13:43:10.999Z,102622.41
2017-09-27T13:45:39.437Z,102620.91
2017-09-27T13:48:08.782Z,102622.21
2017-09-27T13:50:37.270Z,102622.34
2017-09-27T13:53:05.753Z,102632.70
2017-09-27T13:55:34.536Z,102622.09
2017-09-27T13:58:03.022Z,102618.59
2017-09-27T14:00:31.539Z,102617.70
2017-09-27T14:02:59.990Z,102609.36
2017-09-27T14:05:28.453Z,102614.59
2017-09-27T14:07:56.902Z,102614.41
2017-09-27T14:10:26.121Z,102613.34
2017-09-27T14:12:54.633Z,102616.95
2017-09-27T14:15:23.326Z,102615.22
2017-09-27T14:17:51.806Z,102611.27
2017-09-27T14:20:20.294Z,102613.89
2017-09-27T14:22:48.749Z,102608.22
2017-09-27T14:25:17.246Z,102608.92
2017-09-27T14:27:45.686Z,102602.06
2017-09-27T14:30:14.918Z,102606.80
2017-09-27T14:32:43.413Z,102601.56
2017-09-27T14:35:11.994Z,102603.42
2017-09-27T14:37:40.442Z,102605.38
2017-09-27T14:40:09.674Z,102606.57
2017-09-27T14:42:38.146Z,102607.20
2017-09-27T14:45:06.602Z,102603.34
2017-09-27T14:47:35.832Z,102607.91
2017-09-27T14:50:04.277Z,102604.87
2017-09-27T14:52:33.619Z,102607.97
2017-09-27T14:55:02.062Z,102602.89
2017-09-27T14:57:31.403Z,102605.05
2017-09-27T14:59:59.850Z,102606.14
2017-09-27T15:02:29.086Z,102606.57
2017-09-27T15:04:57.566Z,102603.92
2017-09-27T15:07:26.038Z,102597.00
2017-09-27T15:09:54.486Z,102602.47
2017-09-27T15:12:23.830Z,102598.81
2017-09-27T15:14:52.313Z,102603.72
2017-09-27T15:17:20.795Z,102609.44
2017-09-27T15:19:49.268Z,102609.18
2017-09-27T15:22:17.762Z,102609.69
2017-09-27T15:24:46.230Z,102612.46
2017-09-27T15:27:14.677Z,102616.92
2017-09-27T15:29:43.906Z,102616.11
2017-09-27T15:32:12.357Z,102616.30
2017-09-27T15:34:41.594Z,102608.89
2017-09-27T15:37:10.042Z,102608.22
2017-09-27T15:39:39.277Z,102602.41
2017-09-27T15:42:07.766Z,102604.12
2017-09-27T15:44:37.057Z,102604.41
2017-09-27T15:47:05.514Z,102604.93
2017-09-27T15:49:34.747Z,102606.19
2017-09-27T15:52:03.198Z,102612.98
2017-09-27T15:54:32.533Z,102608.63
2017-09-27T15:57:00.978Z,102608.52
2017-09-27T15:59:30.210Z,102608.53
2017-09-27T16:01:58.682Z,102608.36
2017-09-27T16:04:27.137Z,102611.16
2017-09-27T16:06:56.378Z,102617.19
2017-09-27T16:09:24.863Z,102621.81
2017-09-27T16:11:53.330Z,102620.92
2017-09-27T16:14:21.782Z,102621.55
2017-09-27T16:16:51.015Z,102618.22
2017-09-27T16:19:19.462Z,102617.38
2017-09-27T16:21:48.803Z,102624.61
2017-09-27T16:24:17.250Z,102621.34
2017-09-27T16:26:46.590Z,102625.01
2017-09-27T16:29:15.037Z,102628.59
2017-09-27T16:31:43.506Z,102635.28
2017-09-27T16:34:12.720Z,102635.08
2017-09-27T16:36:41.230Z,102631.00
2017-09-27T16:39:09.713Z,102631.52
2017-09-27T16:41:38.185Z,102631.24
2017-09-27T16:44:06.678Z,102628.64
2017-09-27T16:46:35.261Z,102625.70
2017-09-27T16:49:03.750Z,102634.09
2017-09-27T16:51:32.227Z,102633.42
2017-09-27T16:54:00.809Z,102634.23
2017-09-27T16:56:29.286Z,102630.96
2017-09-27T16:58:57.758Z,102629.81
2017-09-27T17:01:26.201Z,102631.59
2017-09-27T17:03:55.437Z,102631.58
2017-09-27T17:06:23.938Z,102626.50
2017-09-27T17:08:52.407Z,102631.30
2017-09-27T17:11:20.899Z,102633.46
2017-09-27T17:13:49.483Z,102637.88
2017-09-27T17:16:17.931Z,102636.67
2017-09-27T17:18:47.165Z,102640.28
2017-09-27T17:21:15.751Z,102638.56
2017-09-27T17:23:44.242Z,102640.80
2017-09-27T17:26:12.713Z,102643.05
2017-09-27T17:28:41.194Z,102643.55
2017-09-27T17:31:09.657Z,102646.17
2017-09-27T17:33:38.159Z,102641.89
2017-09-27T17:36:06.625Z,102639.80
2017-09-27T17:38:35.118Z,102642.45
2017-09-27T17:41:03.594Z,102641.73
2017-09-27T17:43:32.089Z,102643.55
2017-09-27T17:46:00.598Z,102645.30
2017-09-27T17:48:29.041Z,102639.98
2017-09-27T17:50:57.636Z,102637.02
2017-09-27T17:53:26.302Z,102637.02
2017-09-27T17:55:54.804Z,102634.34
2017-09-27T17:58:23.255Z,102640.42
2017-09-27T18:00:52.490Z,102641.66
2017-09-27T18:03:20.929Z,102642.67
2017-09-27T18:05:55.767Z,102649.35
2017-09-27T18:08:29.073Z,102647.29
2017-09-27T18:11:02.921Z,102647.00
2017-09-27T18:13:36.357Z,102643.15
2017-09-27T18:16:11.053Z,102642.80
2017-09-27T18:18:44.677Z,102639.80
2017-09-27T18:21:13.142Z,102644.16
2017-09-27T18:23:41.586Z,102649.86
2017-09-27T18:26:10.049Z,102649.92
2017-09-27T18:28:38.489Z,102652.66
2017-09-27T18:31:06.960Z,102653.58
2017-09-27T18:33:35.417Z,102653.23
2017-09-27T18:36:03.906Z,102650.23
2017-09-27T18:38:32.349Z,102649.86
2017-09-27T18:41:01.575Z,102651.11
2017-09-27T18:43:30.041Z,102653.02
2017-09-27T18:45:58.490Z,102655.62
2017-09-27T18:48:27.731Z,102654.33
2017-09-27T18:50:56.183Z,102659.63
2017-09-27T18:53:25.417Z,102659.19
2017-09-27T18:55:53.876Z,102656.14
2017-09-27T18:58:22.341Z,102661.41
2017-09-27T19:00:51.554Z,102661.41
2017-09-27T19:03:20.886Z,102660.60
2017-09-27T19:05:49.333Z,102663.27
2017-09-27T19:08:18.670Z,102663.16
2017-09-27T19:10:47.147Z,102658.48
2017-09-27T19:13:15.618Z,102653.81
2017-09-27T19:15:44.070Z,102651.15
2017-09-27T19:18:13.308Z,102648.28
2017-09-27T19:20:41.807Z,102654.83
2017-09-27T19:23:10.390Z,102656.63
2017-09-27T19:25:38.866Z,102654.07
2017-09-27T19:28:07.452Z,102660.70
2017-09-27T19:30:36.442Z,102660.70
2017-09-27T19:33:04.885Z,102658.09
2017-09-27T19:35:34.119Z,102662.44
2017-09-27T19:38:02.573Z,102667.70
2017-09-27T19:40:31.806Z,102663.47
2017-09-27T19:43:00.253Z,102666.07
2017-09-27T19:45:29.485Z,102661.80
2017-09-27T19:47:57.962Z,102662.28
2017-09-27T19:50:26.545Z,102664.02
2017-09-27T19:52:55.005Z,102657.94
2017-09-27T19:55:23.493Z,102662.38
2017-09-27T19:57:51.933Z,102656.31
2017-09-27T20:00:20.401Z,102659.83
2017-09-27T20:02:48.846Z,102657.18
2017-09-27T20:05:17.335Z,102654.19
2017-09-27T20:07:45.786Z,102656.45
2017-09-27T20:10:15.021Z,102652.45
2017-09-27T20:12:43.491Z,102656.52
2017-09-27T20:15:11.934Z,102655.16
2017-09-27T20:17:41.170Z,102654.78
2017-09-27T20:20:09.613Z,102656.58
2017-09-27T20:22:38.968Z,102660.43
2017-09-27T20:25:07.414Z,102654.45
2017-09-27T20:27:35.935Z,102660.09
2017-09-27T20:30:04.385Z,102657.48
2017-09-27T20:32:32.858Z,102660.11
2017-09-27T20:35:02.070Z,102658.39
2017-09-27T20:37:30.538Z,102656.22
2017-09-27T20:39:59.750Z,102651.42
2017-09-27T20:42:28.222Z,102654.89
2017-09-27T20:44:57.458Z,102655.33
2017-09-27T20:47:26.041Z,102652.27
2017-09-27T20:49:54.522Z,102648.32
2017-09-27T20:52:22.965Z,102651.75
2017-09-27T20:54:52.306Z,102651.30
2017-09-27T20:57:20.754Z,102641.27
2017-09-27T20:59:50.088Z,102651.73
2017-09-27T21:02:18.575Z,102653.10
2017-09-27T21:04:47.155Z,102647.45
2017-09-27T21:07:15.638Z,102644.48
2017-09-27T21:09:44.221Z,102649.69
2017-09-27T21:12:12.668Z,102647.53
2017-09-27T21:14:41.999Z,102653.66
2017-09-27T21:17:10.486Z,102649.08
2017-09-27T21:19:39.071Z,102653.03
2017-09-27T21:22:07.553Z,102657.86
2017-09-27T21:24:36.034Z,102654.00
2017-09-27T21:27:04.482Z,102654.92
2017-09-27T21:29:33.817Z,102658.00
2017-09-27T21:32:02.308Z,102657.61
2017-09-27T21:34:30.782Z,102658.91
2017-09-27T21:36:59.234Z,102652.84
2017-09-27T21:39:27.673Z,102652.41
2017-09-27T21:41:56.154Z,102652.84
2017-09-27T21:44:25.318Z,102648.55
2017-09-27T21:46:53.794Z,102652.08
2017-09-27T21:49:22.283Z,102652.55
2017-09-27T21:51:50.770Z,102649.12
2017-09-27T21:54:19.252Z,102653.47
2017-09-27T21:56:47.717Z,102653.03
2017-09-27T21:59:16.162Z,102651.64
2017-09-27T22:01:44.625Z,102653.80
2017-09-27T22:04:13.181Z,102656.02
2017-09-27T22:06:41.764Z,102653.80
2017-09-27T22:09:10.247Z,102650.37
2017-09-27T22:11:38.737Z,102648.64
2017-09-27T22:14:07.206Z,102650.81
2017-09-27T22:16:35.692Z,102646.91
2017-09-27T22:19:04.166Z,102649.52
2017-09-27T22:21:32.723Z,102655.11
2017-09-27T22:24:02.060Z,102654.20
2017-09-27T22:26:30.505Z,102650.77
2017-09-27T22:28:59.742Z,102650.77
2017-09-27T22:31:28.225Z,102645.17
2017-09-27T22:33:56.687Z,102653.85
2017-09-27T22:36:25.124Z,102660.80
2017-09-27T22:38:55.204Z,102648.64
2017-09-27T22:41:23.650Z,102647.78
2017-09-27T22:43:52.955Z,102653.90
2017-09-27T22:46:22.170Z,102644.36
2017-09-27T22:48:50.666Z,102646.58
2017-09-27T22:51:19.110Z,102647.88
2017-09-27T22:53:48.452Z,102652.69
2017-09-27T22:56:16.897Z,102646.23
2017-09-27T22:58:46.125Z,102650.22
2017-09-27T23:01:14.597Z,102653.21
2017-09-27T23:03:43.091Z,102658.85
2017-09-27T23:06:11.557Z,102658.90
2017-09-27T23:08:40.002Z,102654.60
2017-09-27T23:11:08.474Z,102651.22
2017-09-27T23:13:36.923Z,102650.35
2017-09-27T23:16:05.405Z,102647.80
2017-09-27T23:18:33.848Z,102648.70
2017-09-27T23:21:03.087Z,102648.27
2017-09-27T23:23:32.391Z,102650.09
2017-09-27T23:26:00.970Z,102645.80
2017-09-27T23:28:29.450Z,102640.16
2017-09-27T23:30:57.926Z,102644.09
2017-09-27T23:33:27.998Z,102645.88
2017-09-27T23:35:56.492Z,102651.11
2017-09-27T23:38:25.748Z,102651.08
2017-09-27T23:40:54.193Z,102656.31
2017-09-27T23:43:22.659Z,102652.84
2017-09-27T23:45:51.869Z,102658.99
2017-09-27T23:48:20.338Z,102660.73
2017-09-27T23:50:49.581Z,102660.30
2017-09-27T23:53:18.062Z,102662.54
2017-09-27T23:55:46.549Z,102658.16
2017-09-27T23:58:15.018Z,102660.77
